createdAt,value
2018-12-07T00:02:25.964Z,15.83
2018-12-07T00:04:53.498Z,15.53
2018-12-07T00:07:21.134Z,15.53
2018-12-07T00:09:48.679Z,15.87
2018-12-07T00:12:16.239Z,16.73
2018-12-07T00:14:43.726Z,15.80
2018-12-07T00:17:11.264Z,15.27
2018-12-07T00:19:38.959Z,15.30
2018-12-07T00:22:06.570Z,15.47
2018-12-07T00:24:34.150Z,15.30
2018-12-07T00:27:01.795Z,15.23
2018-12-07T00:29:29.913Z,15.07
2018-12-07T00:31:57.482Z,14.77
2018-12-07T00:34:25.059Z,15.53
2018-12-07T00:36:52.744Z,14.87
2018-12-07T00:39:20.271Z,15.50
2018-12-07T00:41:47.829Z,15.10
2018-12-07T00:44:15.442Z,15.80
2018-12-07T00:46:43.029Z,15.17
2018-12-07T00:49:11.124Z,15.73
2018-12-07T00:51:39.538Z,13.80
2018-12-07T00:54:07.147Z,14.90
2018-12-07T00:56:35.260Z,15.00
2018-12-07T00:59:03.818Z,14.60
2018-12-07T01:01:31.504Z,13.23
2018-12-07T01:03:59.213Z,12.80
2018-12-07T01:06:26.752Z,12.57
2018-12-07T01:08:55.862Z,12.67
2018-12-07T01:11:23.454Z,13.00
2018-12-07T01:13:51.028Z,11.70
2018-12-07T01:16:18.540Z,11.23
2018-12-07T01:18:46.096Z,11.20
2018-12-07T01:21:15.128Z,10.87
2018-12-07T01:23:43.594Z,11.87
2018-12-07T01:26:11.166Z,11.10
2018-12-07T01:28:39.604Z,10.63
2018-12-07T01:31:07.133Z,10.23
2018-12-07T01:33:34.699Z,10.83
2018-12-07T01:36:03.227Z,10.10
2018-12-07T01:38:30.875Z,9.50
2018-12-07T01:40:58.513Z,10.27
2018-12-07T01:43:26.832Z,9.43
2018-12-07T01:45:54.419Z,8.50
2018-12-07T01:48:22.207Z,9.10
2018-12-07T01:50:49.911Z,8.10
2018-12-07T01:53:18.737Z,8.70
2018-12-07T01:55:46.355Z,7.30
2018-12-07T01:58:13.974Z,7.30
2018-12-07T02:00:41.517Z,6.43
2018-12-07T02:03:09.216Z,6.80
2018-12-07T02:05:37.908Z,6.43
2018-12-07T02:08:06.462Z,6.17
2018-12-07T02:10:35.071Z,6.27
2018-12-07T02:13:02.692Z,6.07
2018-12-07T02:15:33.693Z,6.10
2018-12-07T02:18:01.320Z,6.00
2018-12-07T02:20:28.841Z,6.20
2018-12-07T02:22:56.764Z,6.23
2018-12-07T02:25:24.333Z,6.37
2018-12-07T02:27:57.466Z,6.43
2018-12-07T02:30:24.996Z,5.93
2018-12-07T02:32:52.589Z,6.40
2018-12-07T02:35:20.375Z,5.70
2018-12-07T02:37:49.482Z,6.23
2018-12-07T02:40:17.062Z,6.30
2018-12-07T02:42:44.621Z,6.57
2018-12-07T02:45:13.035Z,6.40
2018-12-07T02:47:40.742Z,6.53
2018-12-07T02:50:08.376Z,6.30
2018-12-07T02:52:35.935Z,6.23
2018-12-07T02:55:03.721Z,6.93
2018-12-07T02:57:31.434Z,6.33
2018-12-07T02:59:58.940Z,6.40
2018-12-07T03:02:26.498Z,5.77
2018-12-07T03:04:54.022Z,5.87
2018-12-07T03:07:21.578Z,5.10
2018-12-07T03:09:50.016Z,5.20
2018-12-07T03:12:17.643Z,5.23
2018-12-07T03:14:46.214Z,4.57
2018-12-07T03:17:13.724Z,4.70
2018-12-07T03:19:41.448Z,4.63
2018-12-07T03:22:09.987Z,4.50
2018-12-07T03:24:37.497Z,4.20
2018-12-07T03:27:05.016Z,4.13
2018-12-07T03:29:32.531Z,3.60
2018-12-07T03:32:00.222Z,3.50
2018-12-07T03:34:27.772Z,3.37
2018-12-07T03:36:55.462Z,3.17
2018-12-07T03:39:23.576Z,2.97
2018-12-07T03:41:51.110Z,2.60
2018-12-07T03:44:19.237Z,2.90
2018-12-07T03:46:47.368Z,2.60
2018-12-07T03:49:15.860Z,2.40
2018-12-07T03:51:43.536Z,2.30
2018-12-07T03:54:11.031Z,2.30
2018-12-07T03:56:39.204Z,3.03
2018-12-07T03:59:06.778Z,2.70
2018-12-07T04:01:34.307Z,2.50
2018-12-07T04:04:01.953Z,2.50
2018-12-07T04:06:29.565Z,2.47
2018-12-07T04:08:57.122Z,2.37
2018-12-07T04:11:24.703Z,2.90
2018-12-07T04:13:52.234Z,2.60
2018-12-07T04:16:19.790Z,2.50
2018-12-07T04:18:47.343Z,2.63
2018-12-07T04:21:15.434Z,2.77
2018-12-07T04:23:43.470Z,3.00
2018-12-07T04:26:11.028Z,2.70
2018-12-07T04:28:38.570Z,2.67
2018-12-07T04:31:06.263Z,2.90
2018-12-07T04:33:33.838Z,3.13
2018-12-07T04:36:07.289Z,2.70
2018-12-07T04:38:31.992Z,2.90
2018-12-07T04:40:59.644Z,2.80
2018-12-07T04:43:27.274Z,2.37
2018-12-07T04:45:54.851Z,2.23
2018-12-07T04:48:22.374Z,2.10
2018-12-07T04:50:51.420Z,1.80
2018-12-07T04:53:19.984Z,1.70
2018-12-07T04:55:47.908Z,1.90
2018-12-07T04:58:15.772Z,1.80
2018-12-07T05:00:43.262Z,1.70
2018-12-07T05:03:10.869Z,1.57
2018-12-07T05:05:38.489Z,1.60
2018-12-07T05:08:07.797Z,1.50
2018-12-07T05:10:35.650Z,1.40
2018-12-07T05:13:04.505Z,1.47
2018-12-07T05:15:32.896Z,1.50
2018-12-07T05:18:01.415Z,1.40
2018-12-07T05:20:29.979Z,1.33
2018-12-07T05:22:57.677Z,1.33
2018-12-07T05:25:25.222Z,1.53
2018-12-07T05:27:53.367Z,1.43
2018-12-07T05:30:20.866Z,1.40
2018-12-07T05:32:49.410Z,1.53
2018-12-07T05:35:18.025Z,2.10
2018-12-07T05:37:46.434Z,2.37
2018-12-07T05:40:14.036Z,1.80
2018-12-07T05:42:42.520Z,1.90
2018-12-07T05:45:10.129Z,1.80
2018-12-07T05:47:37.698Z,2.10
2018-12-07T05:50:07.611Z,2.10
2018-12-07T05:52:35.196Z,2.10
2018-12-07T05:55:02.726Z,2.17
2018-12-07T05:57:30.991Z,2.30
2018-12-07T06:00:00.241Z,2.00
2018-12-07T06:02:28.920Z,2.33
2018-12-07T06:04:56.623Z,2.80
2018-12-07T06:07:24.264Z,2.27
2018-12-07T06:09:51.915Z,2.70
2018-12-07T06:12:19.479Z,2.30
2018-12-07T06:14:47.104Z,2.50
2018-12-07T06:17:15.246Z,2.90
2018-12-07T06:19:43.256Z,2.60
2018-12-07T06:22:10.835Z,2.80
2018-12-07T06:24:39.159Z,2.30
2018-12-07T06:27:08.378Z,2.60
2018-12-07T06:29:36.148Z,2.60
2018-12-07T06:32:03.798Z,2.63
2018-12-07T06:34:31.420Z,2.50
2018-12-07T06:36:59.016Z,2.20
2018-12-07T06:39:28.402Z,2.30
2018-12-07T06:41:57.594Z,2.20
2018-12-07T06:44:25.223Z,2.00
2018-12-07T06:46:53.262Z,1.97
2018-12-07T06:49:20.796Z,1.80
2018-12-07T06:51:48.356Z,2.10
2018-12-07T06:54:15.971Z,1.80
2018-12-07T06:56:43.549Z,1.90
2018-12-07T06:59:11.076Z,1.80
2018-12-07T07:01:38.700Z,1.67
2018-12-07T07:04:06.321Z,1.90
2018-12-07T07:06:33.998Z,1.60
2018-12-07T07:09:01.844Z,1.77
2018-12-07T07:11:30.287Z,1.30
2018-12-07T07:13:57.872Z,1.80
2018-12-07T07:16:25.511Z,1.63
2018-12-07T07:18:53.046Z,1.37
2018-12-07T07:21:20.705Z,1.30
2018-12-07T07:23:49.076Z,1.30
2018-12-07T07:26:18.297Z,1.30
2018-12-07T07:28:45.899Z,2.70
2018-12-07T07:33:50.187Z,3.33
2018-12-07T07:36:23.501Z,1.60
2018-12-07T07:38:51.261Z,1.40
2018-12-07T07:41:18.791Z,1.50
2018-12-07T07:43:46.327Z,1.10
2018-12-07T07:46:13.906Z,1.20
2018-12-07T07:48:41.481Z,1.30
2018-12-07T07:51:09.743Z,1.30
2018-12-07T07:53:37.261Z,1.17
2018-12-07T07:56:05.404Z,1.03
2018-12-07T07:58:34.486Z,1.10
2018-12-07T08:01:02.229Z,1.20
2018-12-07T08:03:29.850Z,1.27
2018-12-07T08:05:57.487Z,1.80
2018-12-07T08:08:25.912Z,3.10
2018-12-07T08:10:55.606Z,1.93
2018-12-07T08:13:23.163Z,1.40
2018-12-07T08:15:50.690Z,1.43
2018-12-07T08:18:19.141Z,1.17
2018-12-07T08:20:46.699Z,3.10
2018-12-07T08:23:14.924Z,2.20
2018-12-07T08:25:42.788Z,1.60
2018-12-07T08:28:10.403Z,1.93
2018-12-07T08:30:38.270Z,3.33
2018-12-07T08:33:06.055Z,3.80
2018-12-07T08:35:35.254Z,1.83
2018-12-07T08:38:02.891Z,1.30
2018-12-07T08:40:30.571Z,1.30
2018-12-07T08:42:58.402Z,1.27
2018-12-07T08:45:28.803Z,1.00
2018-12-07T08:47:56.345Z,0.97
2018-12-07T08:50:24.003Z,0.80
2018-12-07T08:52:51.650Z,0.80
2018-12-07T08:55:20.067Z,1.07
2018-12-07T08:57:48.420Z,1.13
2018-12-07T09:00:16.145Z,0.90
2018-12-07T09:02:43.767Z,1.07
2018-12-07T09:05:11.384Z,1.00
2018-12-07T09:07:39.239Z,1.00
2018-12-07T09:10:06.952Z,1.00
2018-12-07T09:12:34.496Z,0.83
2018-12-07T09:15:02.182Z,1.00
2018-12-07T09:17:29.884Z,0.93
2018-12-07T09:19:57.438Z,1.00
2018-12-07T09:22:24.958Z,1.10
2018-12-07T09:24:52.534Z,1.00
2018-12-07T09:27:20.506Z,1.30
2018-12-07T09:29:48.814Z,1.10
2018-12-07T09:32:16.953Z,1.10
2018-12-07T09:34:44.507Z,1.20
2018-12-07T09:37:12.543Z,1.03
2018-12-07T09:39:40.206Z,1.50
2018-12-07T09:42:07.968Z,1.40
2018-12-07T09:44:35.491Z,1.27
2018-12-07T09:47:03.064Z,1.20
2018-12-07T09:49:30.684Z,1.00
2018-12-07T09:51:58.409Z,1.20
2018-12-07T09:54:26.780Z,1.37
2018-12-07T09:56:54.402Z,1.40
2018-12-07T09:59:21.956Z,2.30
2018-12-07T10:01:49.624Z,1.20
2018-12-07T10:04:17.641Z,1.10
2018-12-07T10:06:45.193Z,1.27
2018-12-07T10:09:14.655Z,0.90
2018-12-07T10:11:43.239Z,1.20
2018-12-07T10:14:10.793Z,2.30
2018-12-07T10:16:39.126Z,1.80
2018-12-07T10:19:07.330Z,1.07
2018-12-07T10:21:36.511Z,1.07
2018-12-07T10:24:04.619Z,1.10
2018-12-07T10:26:32.170Z,1.10
2018-12-07T10:29:00.481Z,1.00
2018-12-07T10:31:30.671Z,0.80
2018-12-07T10:34:00.241Z,0.80
2018-12-07T10:36:27.787Z,0.90
2018-12-07T10:38:55.344Z,1.00
2018-12-07T10:41:24.617Z,1.00
2018-12-07T10:43:52.358Z,1.10
2018-12-07T10:46:19.952Z,0.90
2018-12-07T10:48:48.543Z,0.80
2018-12-07T10:51:17.472Z,0.63
2018-12-07T10:53:46.077Z,1.00
2018-12-07T10:56:13.681Z,1.00
2018-12-07T10:58:42.194Z,1.03
2018-12-07T11:01:16.004Z,1.10
2018-12-07T11:03:49.756Z,0.87
2018-12-07T11:06:23.608Z,1.20
2018-12-07T11:12:09.590Z,1.10
2018-12-07T11:14:42.865Z,0.80
2018-12-07T11:17:16.866Z,1.13
2018-12-07T11:19:51.802Z,1.00
2018-12-07T11:22:24.915Z,0.97
2018-12-07T11:24:58.395Z,1.17
2018-12-07T11:27:33.444Z,0.70
2018-12-07T11:30:04.754Z,0.90
2018-12-07T11:32:32.885Z,1.40
2018-12-07T11:35:03.971Z,1.10
2018-12-07T11:37:31.948Z,0.80
2018-12-07T11:40:00.066Z,0.80
2018-12-07T11:42:27.834Z,1.00
2018-12-07T11:44:56.311Z,1.00
2018-12-07T11:47:24.503Z,0.90
2018-12-07T11:49:53.219Z,0.83
2018-12-07T11:52:21.702Z,0.83
2018-12-07T11:54:52.021Z,0.80
2018-12-07T11:57:19.579Z,0.70
2018-12-07T11:59:47.159Z,1.10
2018-12-07T12:02:15.800Z,1.00
2018-12-07T12:04:43.333Z,0.90
2018-12-07T12:07:10.941Z,1.00
2018-12-07T12:09:38.911Z,0.97
2018-12-07T12:12:06.436Z,1.20
2018-12-07T12:14:34.560Z,0.87
2018-12-07T12:17:03.660Z,1.00
2018-12-07T12:19:31.405Z,1.33
2018-12-07T12:21:59.013Z,1.10
2018-12-07T12:24:26.600Z,1.10
2018-12-07T12:26:54.396Z,0.97
2018-12-07T12:29:21.960Z,1.30
2018-12-07T12:31:49.525Z,1.10
2018-12-07T12:34:18.123Z,1.10
2018-12-07T12:36:45.655Z,1.00
2018-12-07T12:39:13.680Z,1.17
2018-12-07T12:41:46.708Z,1.13
2018-12-07T12:49:19.280Z,1.20
2018-12-07T12:51:47.731Z,1.20
2018-12-07T12:54:15.994Z,1.20
2018-12-07T12:56:43.805Z,0.83
2018-12-07T12:59:11.413Z,1.10
2018-12-07T13:01:38.933Z,1.10
2018-12-07T13:04:06.541Z,1.03
2018-12-07T13:06:34.084Z,1.00
2018-12-07T13:09:01.584Z,0.97
2018-12-07T13:11:29.726Z,0.80
2018-12-07T13:13:57.245Z,0.80
2018-12-07T13:16:24.740Z,0.90
2018-12-07T13:18:52.609Z,0.80
2018-12-07T13:21:20.707Z,0.90
2018-12-07T13:23:48.416Z,0.90
2018-12-07T13:26:16.104Z,1.43
2018-12-07T13:28:43.904Z,0.90
2018-12-07T13:31:11.672Z,0.90
2018-12-07T13:33:39.250Z,1.00
2018-12-07T13:36:06.866Z,0.80
2018-12-07T13:38:34.386Z,0.67
2018-12-07T13:41:02.742Z,0.70
2018-12-07T13:43:30.404Z,0.80
2018-12-07T13:45:58.055Z,0.90
2018-12-07T13:48:34.432Z,1.10
2018-12-07T13:51:02.039Z,1.00
2018-12-07T13:53:30.416Z,0.90
2018-12-07T13:55:58.054Z,0.93
2018-12-07T13:58:26.186Z,1.37
2018-12-07T14:00:53.956Z,0.90
2018-12-07T14:03:21.664Z,1.13
2018-12-07T14:05:49.635Z,1.00
2018-12-07T14:08:18.884Z,1.20
2018-12-07T14:10:47.393Z,1.27
2018-12-07T14:13:16.908Z,1.00
2018-12-07T14:15:46.735Z,1.10
2018-12-07T14:18:15.772Z,0.90
2018-12-07T14:20:44.089Z,1.00
2018-12-07T14:23:13.985Z,1.07
2018-12-07T14:25:44.836Z,1.13
2018-12-07T14:28:14.520Z,1.27
2018-12-07T14:30:46.965Z,1.27
2018-12-07T14:33:14.693Z,1.00
2018-12-07T14:35:42.342Z,1.50
2018-12-07T14:38:11.220Z,1.50
2018-12-07T14:40:39.043Z,3.80
2018-12-07T14:43:06.849Z,1.20
2018-12-07T14:45:34.660Z,1.20
2018-12-07T14:48:02.366Z,1.13
2018-12-07T14:50:34.262Z,1.00
2018-12-07T14:53:01.901Z,0.70
2018-12-07T14:55:30.733Z,1.07
2018-12-07T14:57:58.411Z,0.90
2018-12-07T15:00:26.101Z,1.00
2018-12-07T15:02:53.913Z,0.80
2018-12-07T15:05:21.639Z,1.10
2018-12-07T15:07:49.612Z,1.07
2018-12-07T15:10:17.725Z,1.00
2018-12-07T15:12:47.309Z,1.10
2018-12-07T15:15:17.584Z,1.00
2018-12-07T15:17:45.802Z,1.03
2018-12-07T15:20:13.398Z,1.00
2018-12-07T15:22:41.932Z,0.90
2018-12-07T15:25:10.411Z,1.20
2018-12-07T15:27:38.146Z,1.30
2018-12-07T15:30:07.910Z,0.90
2018-12-07T15:32:36.120Z,0.90
2018-12-07T15:35:05.731Z,1.00
2018-12-07T15:37:34.902Z,1.20
2018-12-07T15:40:05.854Z,1.20
2018-12-07T15:42:35.746Z,1.20
2018-12-07T15:45:06.422Z,1.30
2018-12-07T15:47:35.227Z,1.00
2018-12-07T15:50:05.774Z,0.83
2018-12-07T15:52:35.948Z,1.10
2018-12-07T15:55:05.045Z,1.00
2018-12-07T15:57:35.246Z,0.97
2018-12-07T16:00:03.411Z,0.93
2018-12-07T16:02:33.774Z,0.73
2018-12-07T16:05:01.453Z,1.10
2018-12-07T16:07:29.731Z,0.93
2018-12-07T16:09:57.361Z,0.90
2018-12-07T16:12:24.962Z,0.80
2018-12-07T16:14:52.870Z,0.80
2018-12-07T16:17:22.073Z,1.07
2018-12-07T16:19:51.577Z,0.80
2018-12-07T16:22:19.132Z,0.83
2018-12-07T16:24:46.956Z,0.77
2018-12-07T16:27:14.851Z,0.80
2018-12-07T16:29:42.563Z,0.80
2018-12-07T16:32:10.656Z,0.87
2018-12-07T16:34:38.514Z,0.80
2018-12-07T16:37:06.551Z,1.23
2018-12-07T16:39:35.157Z,0.93
2018-12-07T16:42:03.800Z,1.00
2018-12-07T16:44:32.505Z,1.00
2018-12-07T16:47:00.956Z,0.80
2018-12-07T16:49:30.028Z,0.90
2018-12-07T16:51:59.211Z,0.87
2018-12-07T16:54:27.808Z,0.90
2018-12-07T16:56:55.489Z,1.10
2018-12-07T16:59:23.096Z,1.10
2018-12-07T17:01:50.698Z,0.90
2018-12-07T17:04:19.356Z,1.00
2018-12-07T17:06:47.397Z,1.20
2018-12-07T17:09:15.355Z,1.03
2018-12-07T17:11:43.070Z,1.20
2018-12-07T17:14:10.733Z,1.07
2018-12-07T17:16:39.086Z,1.00
2018-12-07T17:19:08.085Z,1.20
2018-12-07T17:21:35.772Z,1.10
2018-12-07T17:27:03.056Z,0.83
2018-12-07T17:29:30.926Z,0.90
2018-12-07T17:31:58.581Z,1.07
2018-12-07T17:34:26.276Z,1.13
2018-12-07T17:36:54.115Z,1.23
2018-12-07T17:39:21.880Z,1.20
2018-12-07T17:41:50.321Z,0.93
2018-12-07T17:44:18.236Z,0.90
2018-12-07T17:46:46.116Z,0.90
2018-12-07T17:49:13.865Z,1.10
2018-12-07T17:51:43.596Z,1.00
2018-12-07T17:54:11.292Z,1.20
2018-12-07T17:56:39.582Z,1.13
2018-12-07T17:59:07.152Z,1.20
2018-12-07T18:01:35.206Z,1.23
2018-12-07T18:04:02.824Z,1.20
2018-12-07T18:06:32.417Z,1.00
2018-12-07T18:09:00.146Z,1.03
2018-12-07T18:11:27.803Z,1.30
2018-12-07T18:13:55.582Z,0.90
2018-12-07T18:16:23.959Z,1.07
2018-12-07T18:18:51.680Z,1.00
2018-12-07T18:21:19.314Z,0.70
2018-12-07T18:23:49.991Z,0.90
2018-12-07T18:26:17.944Z,0.80
2018-12-07T18:28:45.853Z,0.80
2018-12-07T18:31:13.488Z,0.90
2018-12-07T18:33:41.399Z,0.90
2018-12-07T18:36:09.328Z,0.70
2018-12-07T18:38:37.373Z,0.90
2018-12-07T18:41:06.703Z,0.70
2018-12-07T18:43:35.189Z,0.80
2018-12-07T18:46:02.889Z,0.80
2018-12-07T18:48:30.525Z,0.80
2018-12-07T18:50:58.895Z,0.60
2018-12-07T18:53:27.252Z,1.00
2018-12-07T18:55:56.074Z,1.00
2018-12-07T18:58:23.854Z,0.90
2018-12-07T19:00:52.388Z,0.70
2018-12-07T19:03:20.879Z,0.70
2018-12-07T19:05:50.560Z,0.80
2018-12-07T19:08:18.775Z,0.70
2018-12-07T19:10:46.460Z,0.73
2018-12-07T19:13:14.097Z,0.60
2018-12-07T19:15:41.655Z,0.60
2018-12-07T19:18:09.665Z,0.60
2018-12-07T19:20:37.603Z,0.60
2018-12-07T19:23:05.645Z,0.80
2018-12-07T19:25:33.515Z,0.50
2018-12-07T19:28:02.234Z,0.60
2018-12-07T19:30:30.444Z,0.80
2018-12-07T19:32:59.032Z,0.60
2018-12-07T19:35:26.651Z,0.60
2018-12-07T19:37:54.437Z,0.60
2018-12-07T19:40:23.103Z,0.47
2018-12-07T19:42:50.932Z,0.50
2018-12-07T19:45:18.516Z,0.70
2018-12-07T19:47:46.483Z,0.60
2018-12-07T19:50:14.243Z,0.90
2018-12-07T19:52:42.093Z,0.97
2018-12-07T19:55:10.902Z,2.13
2018-12-07T19:57:39.380Z,0.60
2018-12-07T20:00:09.243Z,0.70
2018-12-07T20:02:37.594Z,0.50
2018-12-07T20:05:07.106Z,0.63
2018-12-07T20:07:34.865Z,0.50
2018-12-07T20:10:02.762Z,0.60
2018-12-07T20:12:31.463Z,0.87
2018-12-07T20:14:59.213Z,0.87
2018-12-07T20:17:27.853Z,0.70
2018-12-07T20:19:56.585Z,0.50
2018-12-07T20:22:24.588Z,0.33
2018-12-07T20:24:52.308Z,0.60
2018-12-07T20:27:20.653Z,0.77
2018-12-07T20:29:48.362Z,0.80
2018-12-07T20:32:17.351Z,0.50
2018-12-07T20:34:45.042Z,0.90
2018-12-07T20:37:14.082Z,0.87
2018-12-07T20:39:41.707Z,0.70
2018-12-07T20:42:09.618Z,0.90
2018-12-07T20:44:37.219Z,0.80
2018-12-07T20:47:04.851Z,1.00
2018-12-07T20:49:32.664Z,0.60
2018-12-07T20:52:01.110Z,0.93
2018-12-07T20:54:35.420Z,1.30
2018-12-07T20:57:05.127Z,1.00
2018-12-07T20:59:34.202Z,1.10
2018-12-07T21:02:03.548Z,0.80
2018-12-07T21:04:33.535Z,0.90
2018-12-07T21:07:24.838Z,0.80
2018-12-07T21:14:06.019Z,1.23
2018-12-07T21:17:10.074Z,1.10
2018-12-07T21:19:41.469Z,1.77
2018-12-07T21:22:11.703Z,1.50
2018-12-07T21:24:39.515Z,2.30
2018-12-07T21:27:08.706Z,1.93
2018-12-07T21:29:37.205Z,1.90
2018-12-07T21:32:08.964Z,1.70
2018-12-07T21:34:58.228Z,1.90
2018-12-07T21:37:27.509Z,2.00
2018-12-07T21:40:02.032Z,1.83
2018-12-07T21:42:34.074Z,1.90
2018-12-07T21:45:05.579Z,2.30
2018-12-07T21:51:09.766Z,3.87
2018-12-07T21:53:37.628Z,1.47
2018-12-07T21:56:06.159Z,1.60
2018-12-07T21:58:33.958Z,2.77
2018-12-07T22:01:01.633Z,1.90
2018-12-07T22:03:29.523Z,4.60
2018-12-07T22:05:58.603Z,3.27
2018-12-07T22:08:26.500Z,1.70
2018-12-07T22:10:55.317Z,2.10
2018-12-07T22:13:24.560Z,2.03
2018-12-07T22:15:52.147Z,3.13
2018-12-07T22:18:20.681Z,2.60
2018-12-07T22:20:48.208Z,2.30
2018-12-07T22:23:16.250Z,2.47
2018-12-07T22:25:43.826Z,2.30
2018-12-07T22:28:11.387Z,2.57
2018-12-07T22:30:39.351Z,2.83
2018-12-07T22:33:07.222Z,2.50
2018-12-07T22:35:35.070Z,2.80
2018-12-07T22:38:02.889Z,2.57
2018-12-07T22:40:30.575Z,2.50
2018-12-07T22:42:58.524Z,2.53
2018-12-07T22:45:26.416Z,2.37
2018-12-07T22:47:54.283Z,2.20
2018-12-07T22:50:21.968Z,2.50
2018-12-07T22:52:49.528Z,2.37
2018-12-07T22:55:17.906Z,2.57
2018-12-07T22:57:45.701Z,2.30
2018-12-07T23:00:16.058Z,2.30
2018-12-07T23:02:43.557Z,2.80
2018-12-07T23:05:11.443Z,2.50
2018-12-07T23:07:39.086Z,2.50
2018-12-07T23:10:06.842Z,2.47
2018-12-07T23:12:34.325Z,2.60
2018-12-07T23:15:03.218Z,2.37
2018-12-07T23:17:30.756Z,4.93
2018-12-07T23:19:58.304Z,2.80
2018-12-07T23:22:26.098Z,2.40
2018-12-07T23:24:53.736Z,2.97
2018-12-07T23:27:21.309Z,2.33
2018-12-07T23:29:49.713Z,3.47
2018-12-07T23:32:17.226Z,3.87
2018-12-07T23:34:44.895Z,3.17
2018-12-07T23:37:12.576Z,2.57
2018-12-07T23:39:40.060Z,2.20
2018-12-07T23:42:07.612Z,2.50
2018-12-07T23:44:35.174Z,2.43
2018-12-07T23:47:02.765Z,2.50
2018-12-07T23:49:30.316Z,2.63
2018-12-07T23:51:58.258Z,2.90
2018-12-07T23:54:27.311Z,3.03
2018-12-07T23:56:54.849Z,3.13
2018-12-07T23:59:22.386Z,3.10
